Time;durP1;ratioP1;P1;durP2;ratioP2;P2;SDS_P1;SDS_P2;PMS_P1;PMS_P2;Temp;Humidity;BMP_temperature;BMP_pressure;BME280_temperature;BME280_humidity;BME280_pressure;Samples;Min_cycle;Max_cycle;Signal;HPM_P1;HPM_P2
2023/04/01 00:00:25;;;;;;;6.68;4.95;;;10.80;73.30;;;;;;5073126;28;20063;-51
2023/04/01 00:02:51;;;;;;;6.88;4.97;;;10.80;73.30;;;;;;5072642;28;20031;-53
2023/04/01 00:05:17;;;;;;;7.88;5.20;;;10.80;73.40;;;;;;5071304;28;20390;-61
2023/04/01 00:07:43;;;;;;;7.13;4.93;;;10.80;73.50;;;;;;5072294;28;20107;-63
2023/04/01 00:10:11;;;;;;;8.45;5.05;;;10.80;73.60;;;;;;5071632;28;20460;-63
2023/04/01 00:12:37;;;;;;;6.30;4.97;;;10.80;73.70;;;;;;5071270;28;20033;-62
2023/04/01 00:15:09;;;;;;;6.95;5.30;;;10.80;73.70;;;;;;5060053;28;20033;-61
2023/04/01 00:17:35;;;;;;;7.40;5.25;;;10.80;73.80;;;;;;5072103;28;20021;-63
2023/04/01 00:20:02;;;;;;;6.72;5.22;;;10.80;73.70;;;;;;5074912;28;20036;-62
2023/04/01 00:22:28;;;;;;;8.52;5.80;;;10.80;73.80;;;;;;5077204;28;20380;-62
2023/04/01 00:24:53;;;;;;;6.93;5.13;;;10.80;73.70;;;;;;5072078;28;20036;-61
2023/04/01 00:27:20;;;;;;;6.88;5.35;;;10.80;73.60;;;;;;5072192;28;20032;-60
2023/04/01 00:29:47;;;;;;;9.10;5.63;;;10.90;73.50;;;;;;5071786;28;20035;-61
2023/04/01 00:32:13;;;;;;;6.57;5.35;;;10.90;73.60;;;;;;5072177;28;20036;-59
2023/04/01 00:34:39;;;;;;;7.55;5.38;;;10.90;73.60;;;;;;5065044;28;20070;-59
2023/04/01 00:37:06;;;;;;;7.88;5.65;;;10.90;73.80;;;;;;5071596;28;20086;-59
2023/04/01 00:39:32;;;;;;;7.60;5.07;;;10.80;73.90;;;;;;5070317;28;20024;-60
2023/04/01 00:41:59;;;;;;;6.82;5.30;;;10.80;74.20;;;;;;5071798;28;20036;-61
2023/04/01 00:44:34;;;;;;;7.13;5.18;;;10.80;74.30;;;;;;5075601;28;20093;-61
2023/04/01 00:47:00;;;;;;;7.50;5.43;;;10.80;74.40;;;;;;5079427;28;20077;-50
2023/04/01 00:49:36;;;;;;;5.90;5.30;;;10.80;74.50;;;;;;5071225;28;20071;-54
2023/04/01 00:52:04;;;;;;;7.32;5.40;;;10.70;74.60;;;;;;5071816;28;20467;-54
2023/04/01 00:54:31;;;;;;;8.00;5.78;;;10.80;74.70;;;;;;5071479;28;20441;-54
2023/04/01 00:56:59;;;;;;;7.82;5.80;;;10.80;74.70;;;;;;5071530;28;20474;-62
2023/04/01 00:59:29;;;;;;;6.88;5.13;;;10.80;74.70;;;;;;5071695;28;20056;-63
2023/04/01 01:01:55;;;;;;;8.73;5.40;;;10.90;74.80;;;;;;5071789;28;20471;-61
2023/04/01 01:04:29;;;;;;;8.05;5.60;;;10.90;74.70;;;;;;5071318;28;20435;-61
2023/04/01 01:07:12;;;;;;;7.60;5.47;;;10.90;74.50;;;;;;5071232;28;20035;-50
2023/04/01 01:10:08;;;;;;;7.13;5.30;;;10.90;74.50;;;;;;5070988;28;20025;-50
2023/04/01 01:12:58;;;;;;;7.68;5.25;;;10.90;74.30;;;;;;5071439;28;20351;-52
2023/04/01 01:15:45;;;;;;;8.40;5.13;;;10.90;74.20;;;;;;5061401;28;20462;-60
2023/04/01 01:18:43;;;;;;;7.78;5.22;;;10.90;74.20;;;;;;5071227;28;20474;-62
2023/04/01 01:21:34;;;;;;;6.80;5.30;;;11.00;74.80;;;;;;5045292;28;20044;-58
2023/04/01 01:24:30;;;;;;;8.18;5.53;;;11.00;73.90;;;;;;5071472;28;20127;-60
2023/04/01 01:27:06;;;;;;;7.45;5.30;;;11.00;74.20;;;;;;5071305;28;20108;-49
2023/04/01 01:29:59;;;;;;;7.65;4.97;;;11.00;74.00;;;;;;5071293;28;20044;-52
2023/04/01 01:33:04;;;;;;;9.27;5.10;;;11.00;74.20;;;;;;5070224;28;20112;-61
2023/04/01 01:35:53;;;;;;;6.50;5.28;;;10.90;74.10;;;;;;5065984;28;20040;-61
2023/04/01 01:38:24;;;;;;;8.95;5.30;;;10.90;74.30;;;;;;5071515;28;20048;-59
2023/04/01 01:40:53;;;;;;;8.63;5.70;;;10.90;74.30;;;;;;5074705;28;20428;-62
2023/04/01 01:43:23;;;;;;;8.50;5.70;;;10.90;74.40;;;;;;5078942;28;20447;-63
2023/04/01 01:45:54;;;;;;;7.80;5.68;;;11.00;74.50;;;;;;5075600;28;20044;-63
2023/04/01 01:48:20;;;;;;;6.90;5.38;;;11.00;74.60;;;;;;5073274;28;20040;-62
2023/04/01 01:50:48;;;;;;;9.30;5.85;;;11.00;74.70;;;;;;5074945;28;20032;-61
2023/04/01 01:53:14;;;;;;;7.78;5.35;;;11.00;74.70;;;;;;5073656;28;20041;-62
2023/04/01 01:55:45;;;;;;;9.85;6.47;;;11.00;75.40;;;;;;5073447;28;20020;-62
2023/04/01 01:58:32;;;;;;;8.43;6.10;;;11.00;75.00;;;;;;5073120;28;20032;-58
2023/04/01 02:01:01;;;;;;;7.45;5.47;;;11.00;75.10;;;;;;5073402;28;20455;-61
2023/04/01 02:03:30;;;;;;;8.23;6.28;;;11.00;75.30;;;;;;5073323;28;20111;-60
2023/04/01 02:05:59;;;;;;;8.10;6.22;;;10.90;75.40;;;;;;5072885;28;20035;-60
2023/04/01 02:08:35;;;;;;;9.77;6.75;;;10.90;75.70;;;;;;5073316;28;20032;-60
2023/04/01 02:11:10;;;;;;;8.18;6.43;;;10.90;75.80;;;;;;5070044;28;20074;-60
2023/04/01 02:13:53;;;;;;;8.25;6.30;;;10.90;76.10;;;;;;5074659;28;20784;-60
2023/04/01 02:16:35;;;;;;;7.43;5.72;;;10.90;76.10;;;;;;5074136;28;20040;-61
2023/04/01 02:19:07;;;;;;;11.95;7.28;;;10.80;76.20;;;;;;5074435;28;20032;-59
2023/04/01 02:21:34;;;;;;;10.57;7.20;;;10.80;77.10;;;;;;5081789;28;20016;-60
2023/04/01 02:24:02;;;;;;;11.70;7.32;;;10.90;76.70;;;;;;5074395;28;20049;-59
2023/04/01 02:26:28;;;;;;;9.05;6.45;;;10.90;76.70;;;;;;5073526;28;20103;-57
2023/04/01 02:28:56;;;;;;;12.63;7.75;;;10.90;76.80;;;;;;5073727;28;20431;-53
2023/04/01 02:31:23;;;;;;;8.15;6.43;;;10.90;77.40;;;;;;5073991;28;20355;-62
2023/04/01 02:33:49;;;;;;;9.55;6.60;;;10.90;76.70;;;;;;5064633;28;20044;-62
2023/04/01 02:36:16;;;;;;;10.18;6.22;;;10.90;76.70;;;;;;5074165;28;20032;-63
2023/04/01 02:38:44;;;;;;;10.68;7.45;;;10.90;76.90;;;;;;5072424;28;20111;-64
2023/04/01 02:41:10;;;;;;;9.77;7.30;;;10.80;77.10;;;;;;5074248;28;20363;-60
2023/04/01 02:43:35;;;;;;;10.00;7.40;;;10.80;77.20;;;;;;5070373;28;20037;-63
2023/04/01 02:46:01;;;;;;;8.38;6.68;;;10.80;77.50;;;;;;5076444;28;20120;-60
2023/04/01 02:48:27;;;;;;;9.60;7.00;;;10.80;77.60;;;;;;5078068;28;20060;-58
2023/04/01 02:50:53;;;;;;;11.18;7.40;;;10.70;77.70;;;;;;5072592;28;20468;-61
2023/04/01 02:53:19;;;;;;;10.00;7.32;;;10.70;77.90;;;;;;5073617;28;20028;-60
2023/04/01 02:55:45;;;;;;;9.48;7.80;;;10.70;78.10;;;;;;5074047;28;20107;-56
2023/04/01 02:58:11;;;;;;;10.32;7.32;;;10.60;78.30;;;;;;5073701;28;20043;-53
2023/04/01 03:00:37;;;;;;;11.45;7.53;;;10.60;78.40;;;;;;5073578;28;20032;-52
2023/04/01 03:03:03;;;;;;;10.80;7.95;;;10.60;78.50;;;;;;5073739;28;20037;-55
2023/04/01 03:05:29;;;;;;;10.48;7.25;;;10.60;78.40;;;;;;5073195;28;20024;-52
2023/04/01 03:07:54;;;;;;;11.18;8.05;;;10.60;78.50;;;;;;5073346;28;20467;-50
2023/04/01 03:10:20;;;;;;;10.80;7.85;;;10.60;78.60;;;;;;5073649;28;20024;-52
2023/04/01 03:12:46;;;;;;;11.05;7.38;;;10.60;78.70;;;;;;5072444;28;20029;-56
2023/04/01 03:15:15;;;;;;;12.27;7.75;;;10.60;78.80;;;;;;5073396;28;20355;-56
2023/04/01 03:17:42;;;;;;;10.00;7.15;;;10.60;78.80;;;;;;5073027;28;20078;-63
2023/04/01 03:20:10;;;;;;;11.55;7.80;;;10.60;78.90;;;;;;5076796;28;20412;-62
2023/04/01 03:22:36;;;;;;;10.85;7.55;;;10.60;79.00;;;;;;5063427;28;20033;-62
2023/04/01 03:25:03;;;;;;;10.38;7.03;;;10.60;79.10;;;;;;5073060;28;20029;-61
2023/04/01 03:27:29;;;;;;;8.88;6.90;;;10.50;79.10;;;;;;5071864;28;20029;-52
2023/04/01 03:29:54;;;;;;;10.20;7.25;;;10.50;79.10;;;;;;5066044;28;20055;-54
2023/04/01 03:32:20;;;;;;;9.85;7.55;;;10.50;79.30;;;;;;5070791;28;20032;-58
2023/04/01 03:34:46;;;;;;;11.07;7.38;;;10.40;79.40;;;;;;5069960;28;20040;-60
2023/04/01 03:37:11;;;;;;;12.02;8.43;;;10.40;79.60;;;;;;5072516;28;20107;-61
2023/04/01 03:39:37;;;;;;;9.43;7.40;;;10.40;79.70;;;;;;5071811;28;20043;-63
2023/04/01 03:42:03;;;;;;;10.15;7.43;;;10.40;79.70;;;;;;5072109;28;20042;-61
2023/04/01 03:44:32;;;;;;;10.70;7.40;;;10.50;79.70;;;;;;5074995;28;20039;-61
2023/04/01 03:46:58;;;;;;;10.57;7.32;;;10.50;79.50;;;;;;5074928;28;20456;-58
2023/04/01 03:49:24;;;;;;;9.32;7.15;;;10.50;79.40;;;;;;5071569;28;20028;-60
2023/04/01 03:51:50;;;;;;;12.05;7.60;;;10.50;80.10;;;;;;5070692;28;20051;-60
2023/04/01 03:54:16;;;;;;;10.10;7.40;;;10.60;79.50;;;;;;5072005;28;20041;-61
2023/04/01 03:56:42;;;;;;;11.20;7.93;;;10.50;79.60;;;;;;5072408;28;20371;-59
2023/04/01 03:59:08;;;;;;;9.18;7.55;;;10.60;79.60;;;;;;5069834;28;20024;-59
2023/04/01 04:01:34;;;;;;;12.48;8.38;;;10.60;79.60;;;;;;5069865;28;20772;-58
2023/04/01 04:04:00;;;;;;;11.57;8.80;;;10.60;80.20;;;;;;5071495;28;20040;-60
2023/04/01 04:06:26;;;;;;;12.18;9.00;;;10.70;79.70;;;;;;5071191;28;20032;-61
2023/04/01 04:08:52;;;;;;;15.07;9.77;;;10.70;79.50;;;;;;5071384;28;20031;-63
2023/04/01 04:11:18;;;;;;;13.32;9.43;;;10.80;79.50;;;;;;5066169;28;20029;-64
2023/04/01 04:13:44;;;;;;;13.80;9.75;;;10.80;79.20;;;;;;5072254;28;20025;-63
2023/04/01 04:16:10;;;;;;;12.93;9.45;;;10.90;79.20;;;;;;5069942;28;20085;-60
2023/04/01 04:18:37;;;;;;;12.48;9.35;;;10.90;78.90;;;;;;5061764;28;20025;-57
2023/04/01 04:21:03;;;;;;;12.65;9.43;;;11.00;78.90;;;;;;5073507;28;20021;-47
2023/04/01 04:23:30;;;;;;;13.85;9.77;;;11.00;78.90;;;;;;5061607;28;20101;-49
2023/04/01 04:26:06;;;;;;;13.48;9.93;;;11.00;78.90;;;;;;5072350;28;20040;-51
2023/04/01 04:28:32;;;;;;;14.45;9.45;;;11.00;78.90;;;;;;5071862;28;20032;-52
2023/04/01 04:30:58;;;;;;;12.73;8.93;;;11.00;79.00;;;;;;5072037;28;20043;-49
2023/04/01 04:33:24;;;;;;;11.55;8.35;;;11.00;78.90;;;;;;5062353;28;20028;-52
2023/04/01 04:35:51;;;;;;;13.50;8.70;;;11.10;78.90;;;;;;5069924;28;20040;-62
2023/04/01 04:38:17;;;;;;;14.32;9.45;;;11.10;79.00;;;;;;5071521;28;20036;-61
2023/04/01 04:40:43;;;;;;;14.23;9.00;;;11.00;78.90;;;;;;5070125;28;20456;-61
2023/04/01 04:43:14;;;;;;;13.60;9.32;;;11.00;79.20;;;;;;5072776;28;20435;-62
2023/04/01 04:45:40;;;;;;;12.63;8.90;;;11.10;79.10;;;;;;5071631;28;20516;-59
2023/04/01 04:48:15;;;;;;;13.00;9.10;;;11.00;79.00;;;;;;5072177;28;20375;-58
2023/04/01 04:50:42;;;;;;;11.55;8.45;;;11.10;79.00;;;;;;5071814;28;20081;-59
2023/04/01 04:53:18;;;;;;;14.55;8.75;;;11.10;78.80;;;;;;5071193;28;20090;-60
2023/04/01 04:55:48;;;;;;;14.85;9.32;;;11.10;78.50;;;;;;5060169;28;20017;-60
2023/04/01 04:58:14;;;;;;;13.13;8.52;;;11.10;78.90;;;;;;5070559;28;20456;-60
2023/04/01 05:00:40;;;;;;;11.80;8.70;;;11.10;78.20;;;;;;5070432;28;20017;-59
2023/04/01 05:03:06;;;;;;;11.00;7.85;;;11.10;78.10;;;;;;5070045;28;20085;-60
2023/04/01 05:05:32;;;;;;;12.27;8.48;;;11.10;78.30;;;;;;5070598;28;20518;-58
2023/04/01 05:07:57;;;;;;;12.73;8.40;;;11.00;78.10;;;;;;5070893;28;20501;-58
2023/04/01 05:10:23;;;;;;;10.90;8.48;;;11.00;78.00;;;;;;5071765;28;20032;-60
2023/04/01 05:12:49;;;;;;;11.38;8.25;;;11.00;78.20;;;;;;5070306;28;20032;-60
2023/04/01 05:15:15;;;;;;;11.00;7.82;;;11.00;78.30;;;;;;5065472;28;20153;-61
2023/04/01 05:17:40;;;;;;;11.85;8.48;;;10.90;78.60;;;;;;5075399;28;20155;-63
2023/04/01 05:20:07;;;;;;;10.80;8.40;;;10.90;78.90;;;;;;5074233;28;20062;-61
2023/04/01 05:22:32;;;;;;;12.98;9.10;;;10.90;79.20;;;;;;5074488;28;20043;-48
2023/04/01 05:24:58;;;;;;;12.60;8.50;;;10.90;79.20;;;;;;5075532;28;20028;-50
2023/04/01 05:27:24;;;;;;;13.90;9.38;;;10.90;79.20;;;;;;5075235;28;20059;-58
2023/04/01 05:29:49;;;;;;;14.23;8.40;;;10.90;79.20;;;;;;5075700;28;20078;-59
2023/04/01 05:32:15;;;;;;;11.38;7.65;;;11.00;79.30;;;;;;5075206;28;20032;-55
2023/04/01 05:34:41;;;;;;;11.68;8.10;;;10.90;79.00;;;;;;5074901;28;20646;-49
2023/04/01 05:37:07;;;;;;;12.48;8.50;;;11.00;79.10;;;;;;5075526;28;20025;-60
2023/04/01 05:39:37;;;;;;;13.95;9.20;;;10.90;78.90;;;;;;5074695;28;20024;-64
2023/04/01 05:42:05;;;;;;;11.40;8.13;;;11.00;79.00;;;;;;5075260;28;20040;-60
2023/04/01 05:44:30;;;;;;;12.15;8.32;;;11.00;79.20;;;;;;5077420;28;20028;-60
2023/04/01 05:46:56;;;;;;;14.38;8.68;;;11.00;79.30;;;;;;5082703;28;20077;-56
2023/04/01 05:49:22;;;;;;;12.27;8.48;;;11.00;79.20;;;;;;5075666;28;20063;-51
2023/04/01 05:51:47;;;;;;;12.93;8.98;;;11.00;79.30;;;;;;5074944;28;20036;-62
2023/04/01 05:54:13;;;;;;;12.63;8.75;;;11.10;79.10;;;;;;5074728;28;20111;-62
2023/04/01 05:56:38;;;;;;;12.93;8.90;;;11.10;79.20;;;;;;5073006;28;20032;-60
2023/04/01 05:59:04;;;;;;;13.48;9.88;;;11.20;79.20;;;;;;5064693;28;20035;-60
2023/04/01 06:01:30;;;;;;;12.85;8.90;;;11.20;79.10;;;;;;5074349;28;20052;-61
2023/04/01 06:03:55;;;;;;;11.93;9.05;;;11.20;79.00;;;;;;5075046;28;20028;-61
2023/04/01 06:06:27;;;;;;;13.55;8.30;;;11.20;78.80;;;;;;5074972;28;20040;-60
2023/04/01 06:08:55;;;;;;;13.10;8.93;;;11.20;78.80;;;;;;5074695;28;20028;-60
2023/04/01 06:11:20;;;;;;;11.57;8.60;;;11.20;78.70;;;;;;5071227;28;20412;-60
2023/04/01 06:14:05;;;;;;;16.83;9.38;;;11.20;78.80;;;;;;5069324;28;20158;-58
2023/04/01 06:16:39;;;;;;;13.13;8.93;;;11.20;78.90;;;;;;5074800;28;20119;-62
2023/04/01 06:19:10;;;;;;;10.50;7.57;;;11.20;78.80;;;;;;5074530;28;20039;-60
2023/04/01 06:22:33;;;;;;;11.85;9.15;;;11.30;78.90;;;;;;5078208;28;20077;-60
2023/04/01 06:25:07;;;;;;;11.20;8.75;;;11.30;78.90;;;;;;4988348;28;20109;-61
2023/04/01 06:27:59;;;;;;;12.13;8.77;;;11.30;78.90;;;;;;4992377;28;20084;-60
2023/04/01 06:30:41;;;;;;;13.20;8.30;;;11.30;79.00;;;;;;5056659;28;20052;-60
2023/04/01 06:33:31;;;;;;;12.70;8.57;;;11.40;79.20;;;;;;5056687;28;20037;-59
2023/04/01 06:36:23;;;;;;;11.38;8.07;;;11.40;79.00;;;;;;5072994;28;20036;-51
2023/04/01 06:38:58;;;;;;;12.95;8.98;;;11.50;79.10;;;;;;5072262;28;20032;-53
2023/04/01 06:41:36;;;;;;;12.35;8.65;;;11.50;79.20;;;;;;5073986;28;20028;-60
2023/04/01 06:44:19;;;;;;;13.88;9.18;;;11.60;79.30;;;;;;5077878;28;20029;-60
2023/04/01 06:46:50;;;;;;;13.18;9.25;;;11.60;78.90;;;;;;5080862;28;20355;-53
2023/04/01 06:49:25;;;;;;;13.10;8.82;;;11.70;78.70;;;;;;5074255;28;20033;-57
2023/04/01 06:52:06;;;;;;;14.02;9.52;;;11.70;78.60;;;;;;5074000;28;20033;-61
2023/04/01 06:54:36;;;;;;;11.75;8.38;;;11.80;78.60;;;;;;5073891;28;20071;-61
2023/04/01 06:57:21;;;;;;;14.90;9.23;;;11.80;78.50;;;;;;5072662;28;20036;-60
2023/04/01 06:59:48;;;;;;;12.82;9.13;;;11.90;78.20;;;;;;5073834;28;20250;-59
2023/04/01 07:02:34;;;;;;;12.70;9.48;;;12.00;78.20;;;;;;5074089;28;20025;-57
2023/04/01 07:05:01;;;;;;;11.07;8.43;;;12.00;78.10;;;;;;5073472;28;20112;-59
2023/04/01 07:07:34;;;;;;;12.90;9.02;;;12.10;78.00;;;;;;5073692;28;20028;-51
2023/04/01 07:10:05;;;;;;;12.52;9.07;;;12.10;77.70;;;;;;5073147;28;20028;-52
2023/04/01 07:12:31;;;;;;;;;;;12.10;77.50;;;;;;5073797;28;20032;-60
2023/04/01 07:15:00;;;;;;;14.27;8.65;;;12.10;77.50;;;;;;5061264;28;19931;-60
2023/04/01 07:17:31;;;;;;;12.45;8.70;;;12.20;77.50;;;;;;5073193;28;20055;-53
2023/04/01 07:20:01;;;;;;;12.70;8.60;;;12.20;77.40;;;;;;5075656;28;20040;-52
2023/04/01 07:22:38;;;;;;;13.07;9.30;;;12.20;77.50;;;;;;5078265;28;20127;-61
2023/04/01 07:25:25;;;;;;;11.63;9.02;;;12.20;77.20;;;;;;5073395;28;20273;-62
2023/04/01 07:27:54;;;;;;;13.98;8.75;;;12.20;77.20;;;;;;5070916;28;20032;-62
2023/04/01 07:30:23;;;;;;;10.77;7.75;;;12.30;77.20;;;;;;5072890;28;20028;-59
2023/04/01 07:33:08;;;;;;;10.75;7.93;;;12.40;77.00;;;;;;5068635;28;20029;-59
2023/04/01 07:35:47;;;;;;;10.57;8.40;;;12.40;76.60;;;;;;5069145;28;20056;-59
2023/04/01 07:38:42;;;;;;;11.48;7.93;;;12.40;76.50;;;;;;5072277;28;20028;-59
2023/04/01 07:41:40;;;;;;;11.30;8.52;;;12.30;76.50;;;;;;5029750;28;20130;-59
2023/04/01 07:44:17;;;;;;;10.27;7.68;;;12.30;76.50;;;;;;5076383;28;20137;-59
2023/04/01 07:46:43;;;;;;;12.75;8.80;;;12.30;76.80;;;;;;5077090;28;20025;-57
2023/04/01 07:49:29;;;;;;;9.85;7.75;;;12.30;77.00;;;;;;5059300;28;20035;-52
2023/04/01 07:52:26;;;;;;;10.27;7.95;;;12.40;77.10;;;;;;5065111;28;20501;-51
2023/04/01 07:55:04;;;;;;;12.02;8.30;;;12.50;76.90;;;;;;5033502;28;20083;-50
2023/04/01 07:57:48;;;;;;;10.75;8.40;;;12.50;76.80;;;;;;5072503;28;20512;-52
2023/04/01 08:00:33;;;;;;;10.70;8.57;;;12.60;76.90;;;;;;5072047;28;20367;-51
2023/04/01 08:02:58;;;;;;;11.93;9.15;;;12.70;76.50;;;;;;5072716;28;20056;-48
2023/04/01 08:05:49;;;;;;;12.73;8.77;;;12.80;76.50;;;;;;5072406;28;20474;-59
2023/04/01 08:08:44;;;;;;;11.63;8.93;;;12.80;76.10;;;;;;5068721;28;20044;-58
2023/04/01 08:11:28;;;;;;;11.73;8.30;;;12.90;75.80;;;;;;4997991;28;20587;-61
2023/04/01 08:14:13;;;;;;;10.77;7.85;;;12.90;75.50;;;;;;5076856;28;20040;-60
2023/04/01 08:17:05;;;;;;;10.38;7.32;;;12.90;75.30;;;;;;5070820;28;20498;-60
2023/04/01 08:20:10;;;;;;;8.85;7.40;;;13.00;75.50;;;;;;5067456;28;20032;-60
2023/04/01 08:23:10;;;;;;;13.80;9.45;;;13.10;75.70;;;;;;5069625;28;20123;-61
2023/04/01 08:25:42;;;;;;;17.60;11.57;;;13.20;75.60;;;;;;5052117;28;20064;-53
2023/04/01 08:28:15;;;;;;;15.85;11.35;;;13.30;75.40;;;;;;5069083;28;20044;-54
2023/04/01 08:30:56;;;;;;;13.43;8.88;;;13.40;75.20;;;;;;5070826;28;20085;-51
2023/04/01 08:33:27;;;;;;;14.47;10.33;;;13.50;75.10;;;;;;5070822;28;20036;-53
2023/04/01 08:36:02;;;;;;;14.00;9.77;;;13.60;74.80;;;;;;5071364;28;20032;-54
2023/04/01 08:38:37;;;;;;;12.13;9.05;;;13.70;74.30;;;;;;5070596;28;20115;-55
2023/04/01 08:41:32;;;;;;;24.63;12.57;;;13.80;74.80;;;;;;5071028;28;20483;-55
2023/04/01 08:44:30;;;;;;;24.40;14.63;;;13.80;74.10;;;;;;5037873;28;20047;-55
2023/04/01 08:47:31;;;;;;;17.88;11.98;;;13.90;74.10;;;;;;5078467;28;20111;-53
2023/04/01 08:50:24;;;;;;;17.17;12.30;;;14.00;73.80;;;;;;5071030;28;20455;-54
2023/04/01 08:53:27;;;;;;;18.05;12.05;;;14.10;73.60;;;;;;5071628;28;20040;-52
2023/04/01 08:56:05;;;;;;;15.48;10.32;;;14.20;73.40;;;;;;5062640;28;20123;-61
2023/04/01 08:59:04;;;;;;;15.30;10.38;;;14.20;73.30;;;;;;5071084;28;20091;-61
2023/04/01 09:01:51;;;;;;;12.38;8.80;;;14.30;73.20;;;;;;5071127;28;20034;-59
2023/04/01 09:04:39;;;;;;;19.10;13.38;;;14.30;72.80;;;;;;5071547;28;20035;-58
2023/04/01 09:07:23;;;;;;;19.73;14.68;;;14.40;72.90;;;;;;5065202;28;20032;-62
2023/04/01 09:10:05;;;;;;;17.40;11.88;;;14.50;72.80;;;;;;5058572;28;20032;-63
2023/04/01 09:13:08;;;;;;;16.88;11.43;;;14.40;72.60;;;;;;5071315;28;20040;-53
2023/04/01 09:16:22;;;;;;;17.40;11.75;;;14.50;72.50;;;;;;5063025;28;20474;-59
2023/04/01 09:19:02;;;;;;;15.55;9.75;;;14.60;72.60;;;;;;5039365;28;20036;-59
2023/04/01 09:22:09;;;;;;;15.23;9.95;;;14.70;72.40;;;;;;5070321;28;20494;-59
2023/04/01 09:24:59;;;;;;;15.68;10.15;;;14.80;72.30;;;;;;5073303;28;20048;-59
2023/04/01 09:27:34;;;;;;;12.43;8.40;;;14.90;72.00;;;;;;5071384;28;20039;-61
2023/04/01 09:30:20;;;;;;;13.00;9.10;;;15.00;71.90;;;;;;5081536;28;20025;-61
2023/04/01 09:32:52;;;;;;;10.20;7.15;;;15.10;72.20;;;;;;5071096;28;20029;-61
2023/04/01 09:35:48;;;;;;;11.10;7.07;;;15.20;71.00;;;;;;5069876;28;20067;-60
2023/04/01 09:38:26;;;;;;;10.45;6.40;;;15.30;70.50;;;;;;5065755;28;20032;-54
2023/04/01 09:41:02;;;;;;;10.65;6.68;;;15.30;70.30;;;;;;5074153;28;20056;-62
2023/04/01 09:43:39;;;;;;;10.57;6.40;;;15.30;70.00;;;;;;5076442;28;20032;-60
2023/04/01 09:46:26;;;;;;;11.65;7.90;;;15.30;69.80;;;;;;5075058;28;20151;-48
2023/04/01 09:49:21;;;;;;;8.00;6.07;;;15.30;69.70;;;;;;5073143;28;20035;-49
2023/04/01 09:52:09;;;;;;;7.38;5.38;;;15.30;69.70;;;;;;5074398;28;20024;-60
2023/04/01 09:54:44;;;;;;;7.32;5.45;;;15.30;69.60;;;;;;5070322;28;20024;-62
2023/04/01 09:57:21;;;;;;;6.35;5.00;;;15.30;69.50;;;;;;5077712;28;20112;-52
2023/04/01 09:59:47;;;;;;;9.00;6.40;;;15.40;69.30;;;;;;5078435;28;20106;-51
2023/04/01 10:02:40;;;;;;;8.52;5.90;;;15.50;69.30;;;;;;5056954;28;20486;-61
2023/04/01 10:05:24;;;;;;;8.60;6.28;;;15.50;69.10;;;;;;5078603;28;20359;-61
2023/04/01 10:08:17;;;;;;;6.32;4.40;;;15.50;68.90;;;;;;5081450;28;20024;-62
2023/04/01 10:11:04;;;;;;;6.93;4.78;;;15.50;68.60;;;;;;5059021;28;20024;-61
2023/04/01 10:14:10;;;;;;;5.30;4.53;;;15.60;68.60;;;;;;5082181;28;20028;-61
2023/04/01 10:16:38;;;;;;;7.45;5.05;;;15.70;68.40;;;;;;5073804;28;20063;-60
2023/04/01 10:19:28;;;;;;;6.55;4.82;;;15.70;68.30;;;;;;5074643;28;20063;-59
2023/04/01 10:22:35;;;;;;;4.50;3.97;;;15.80;67.80;;;;;;5074376;28;20501;-60
2023/04/01 10:25:25;;;;;;;7.53;4.07;;;15.80;67.60;;;;;;5068648;28;20042;-60
2023/04/01 10:28:08;;;;;;;6.38;3.92;;;15.80;67.30;;;;;;5073945;28;20025;-60
2023/04/01 10:30:52;;;;;;;5.93;4.78;;;15.80;67.30;;;;;;5074352;28;20025;-63
2023/04/01 10:33:38;;;;;;;7.38;5.57;;;15.80;67.10;;;;;;5058899;28;20037;-62
2023/04/01 10:36:23;;;;;;;6.25;5.10;;;15.80;66.90;;;;;;5072976;28;20032;-59
2023/04/01 10:39:16;;;;;;;10.38;7.32;;;15.60;66.80;;;;;;5073085;28;20037;-60
2023/04/01 10:42:02;;;;;;;9.75;7.35;;;15.40;66.80;;;;;;5073698;28;20024;-49
2023/04/01 10:44:34;;;;;;;8.43;6.60;;;15.00;66.20;;;;;;5077331;28;20479;-50
2023/04/01 10:47:30;;;;;;;9.50;6.90;;;14.60;66.80;;;;;;5077862;28;20063;-60
2023/04/01 10:50:40;;;;;;;8.88;6.85;;;14.20;67.50;;;;;;5072586;28;20104;-59
2023/04/01 10:53:39;;;;;;;8.18;6.05;;;13.70;68.50;;;;;;4971512;28;20043;-60
2023/04/01 10:56:10;;;;;;;8.80;5.75;;;13.50;69.20;;;;;;5066945;28;20034;-50
2023/04/01 10:58:57;;;;;;;8.43;6.53;;;13.30;70.00;;;;;;5072381;28;20025;-54
2023/04/01 11:01:44;;;;;;;9.57;5.95;;;13.20;70.30;;;;;;5072664;28;20021;-53
2023/04/01 11:04:39;;;;;;;8.93;6.50;;;13.00;70.50;;;;;;5074070;28;20035;-48
2023/04/01 11:07:22;;;;;;;8.90;6.10;;;12.90;71.00;;;;;;5062417;28;20061;-52
2023/04/01 11:10:29;;;;;;;8.88;5.53;;;12.80;71.40;;;;;;5073569;28;20592;-52
2023/04/01 11:13:27;;;;;;;9.23;5.88;;;12.80;71.60;;;;;;5073308;28;20051;-51
2023/04/01 11:16:11;;;;;;;8.27;5.47;;;12.80;71.90;;;;;;5073627;28;20422;-63
2023/04/01 11:19:10;;;;;;;8.50;5.82;;;12.80;72.10;;;;;;5073054;28;20511;-62
2023/04/01 11:22:00;;;;;;;7.43;5.32;;;12.80;72.20;;;;;;5076624;28;20573;-58
2023/04/01 11:24:34;;;;;;;7.95;5.82;;;12.90;72.30;;;;;;5070820;28;20061;-60
2023/04/01 11:27:18;;;;;;;8.43;5.65;;;12.90;72.40;;;;;;5073749;28;20036;-59
2023/04/01 11:30:03;;;;;;;9.00;5.72;;;13.00;72.60;;;;;;5061745;28;20490;-60
2023/04/01 11:32:34;;;;;;;6.35;5.03;;;13.10;73.40;;;;;;5069063;28;20467;-61
2023/04/01 11:35:37;;;;;;;6.00;4.38;;;13.20;72.70;;;;;;5065328;28;20536;-61
2023/04/01 11:38:25;;;;;;;5.30;4.28;;;13.40;72.60;;;;;;5063779;28;20025;-61
2023/04/01 11:41:14;;;;;;;6.72;4.80;;;13.50;72.40;;;;;;5072044;28;20109;-58
2023/04/01 11:43:57;;;;;;;6.70;4.50;;;13.70;72.20;;;;;;5071799;28;20028;-58
2023/04/01 11:46:42;;;;;;;5.50;4.07;;;13.90;71.90;;;;;;5077492;28;20020;-49
2023/04/01 11:49:26;;;;;;;6.05;4.15;;;14.10;71.40;;;;;;5072265;28;20025;-49
2023/04/01 11:52:01;;;;;;;5.40;3.75;;;14.30;71.20;;;;;;5072344;28;20035;-60
2023/04/01 11:54:41;;;;;;;5.65;4.20;;;14.50;71.00;;;;;;5072670;28;20777;-59
2023/04/01 11:57:39;;;;;;;6.50;4.90;;;14.70;70.50;;;;;;5072491;28;20021;-59
2023/04/01 12:00:17;;;;;;;5.57;4.13;;;14.90;70.00;;;;;;5072243;28;20253;-58
2023/04/01 12:03:15;;;;;;;5.40;3.67;;;15.10;69.50;;;;;;5072404;28;20024;-58
2023/04/01 12:06:03;;;;;;;6.00;4.00;;;15.20;69.00;;;;;;5063359;28;20082;-60
2023/04/01 12:09:06;;;;;;;4.18;3.55;;;15.30;68.60;;;;;;5072159;28;20028;-60
2023/04/01 12:11:45;;;;;;;4.32;3.38;;;15.40;68.30;;;;;;5072287;28;20451;-52
2023/04/01 12:14:26;;;;;;;5.18;3.83;;;15.50;68.00;;;;;;5072518;28;20029;-49
2023/04/01 12:17:21;;;;;;;5.57;3.90;;;15.60;67.60;;;;;;5065108;28;20483;-49
2023/04/01 12:20:08;;;;;;;4.65;3.50;;;15.60;67.30;;;;;;5072790;28;20044;-53
2023/04/01 12:23:16;;;;;;;4.45;3.80;;;15.60;67.20;;;;;;5075357;28;20667;-60
2023/04/01 12:26:20;;;;;;;5.72;3.60;;;15.70;67.10;;;;;;5017951;28;20033;-53
2023/04/01 12:29:06;;;;;;;5.13;3.83;;;15.70;67.00;;;;;;5063739;28;20038;-47
2023/04/01 12:32:13;;;;;;;4.78;3.40;;;15.80;66.90;;;;;;5066044;28;20066;-59
2023/04/01 12:34:44;;;;;;;4.47;3.78;;;15.80;66.70;;;;;;5034994;28;20041;-58
2023/04/01 12:37:29;;;;;;;4.57;3.63;;;15.80;66.50;;;;;;5071134;28;20027;-61
2023/04/01 12:40:13;;;;;;;6.45;3.70;;;15.80;66.30;;;;;;5064571;28;20036;-61
2023/04/01 12:42:52;;;;;;;4.43;3.33;;;15.80;66.30;;;;;;5064419;28;20020;-60
2023/04/01 12:45:53;;;;;;;4.35;3.47;;;15.80;66.10;;;;;;5068975;28;20020;-60
2023/04/01 12:49:03;;;;;;;4.28;3.17;;;15.80;66.10;;;;;;5065585;28;20032;-60
2023/04/01 12:51:53;;;;;;;3.53;3.05;;;15.90;66.00;;;;;;5059693;28;20593;-47
2023/04/01 12:54:18;;;;;;;4.57;3.13;;;15.80;65.80;;;;;;5060972;28;20414;-49
2023/04/01 12:57:12;;;;;;;3.67;2.90;;;15.90;65.80;;;;;;5071766;28;20163;-53
2023/04/01 13:00:12;;;;;;;2.92;2.63;;;15.90;65.60;;;;;;5071750;28;20443;-52
2023/04/01 13:03:09;;;;;;;4.55;2.85;;;15.90;65.50;;;;;;5063311;28;20479;-60
2023/04/01 13:05:50;;;;;;;3.83;3.10;;;16.00;65.50;;;;;;5063077;28;20043;-58
2023/04/01 13:08:36;;;;;;;3.70;2.72;;;16.00;65.30;;;;;;5057263;28;20024;-59
2023/04/01 13:11:21;;;;;;;3.42;2.65;;;16.10;65.30;;;;;;5054023;28;20029;-48
2023/04/01 13:13:52;;;;;;;3.13;2.65;;;16.10;65.00;;;;;;5072023;28;20036;-48
2023/04/01 13:16:26;;;;;;;5.30;3.08;;;16.10;64.80;;;;;;5071305;28;20124;-52
2023/04/01 13:19:14;;;;;;;4.13;2.65;;;16.10;64.70;;;;;;5071855;28;20067;-51
2023/04/01 13:22:10;;;;;;;3.58;2.70;;;16.20;64.60;;;;;;5068504;28;20016;-60
2023/04/01 13:24:42;;;;;;;3.65;2.90;;;16.20;64.60;;;;;;5071374;28;20555;-60
2023/04/01 13:27:40;;;;;;;4.13;2.92;;;16.20;64.30;;;;;;5071805;28;20045;-52
2023/04/01 13:30:25;;;;;;;3.78;2.78;;;16.20;64.20;;;;;;5061953;28;20062;-52
2023/04/01 13:33:04;;;;;;;3.05;2.75;;;16.20;64.30;;;;;;5066347;28;20551;-48